Time;durP1;ratioP1;P1;durP2;ratioP2;P2;SDS_P1;SDS_P2;PMS_P1;PMS_P2;Temp;Humidity;BMP_temperature;BMP_pressure;BME280_temperature;BME280_humidity;BME280_pressure;Samples;Min_cycle;Max_cycle;Signal;HPM_P1;HPM_P2
2022/01/03 00:02:01;;;;;;;24.65;18.15;;;;;;;6.13;79.47;94760.23;815618;72;32805;-85
2022/01/03 00:16:18;;;;;;;27.05;17.90;;;;;;;6.04;79.17;94747.41;825882;71;29690;-87
2022/01/03 00:31:19;;;;;;;24.92;18.52;;;;;;;5.95;79.07;94715.86;825474;71;30403;-88
2022/01/03 00:46:29;;;;;;;24.32;17.60;;;;;;;5.91;79.05;94731.69;802236;74;33202;-82
2022/01/03 01:01:23;;;;;;;21.07;16.67;;;;;;;5.85;78.73;94721.50;833012;68;32813;-87
2022/01/03 01:31:25;;;;;;;19.80;14.10;;;;;;;5.62;79.25;94672.17;835228;71;30236;-86
2022/01/03 01:46:32;;;;;;;21.85;13.85;;;;;;;5.69;79.63;94669.86;828840;71;33266;-90
2022/01/03 02:01:25;;;;;;;24.77;15.28;;;;;;;5.35;79.57;94627.23;795116;74;31178;-85
2022/01/03 02:16:21;;;;;;;21.05;14.58;;;;;;;5.56;79.72;94632.84;793805;74;32890;-90
2022/01/03 02:31:17;;;;;;;23.07;15.45;;;;;;;5.27;80.63;94588.69;832854;71;29684;-88
2022/01/03 02:46:24;;;;;;;21.52;16.57;;;;;;;5.25;81.10;94625.38;832837;68;32882;-85
2022/01/03 03:01:22;;;;;;;26.07;16.80;;;;;;;5.38;80.80;94609.31;829276;71;29689;-87
2022/01/03 03:16:44;;;;;;;21.87;16.15;;;;;;;5.35;80.53;94576.02;824924;71;32753;-87
2022/01/03 03:31:26;;;;;;;19.92;14.80;;;;;;;5.45;79.87;94596.08;828100;71;32798;-87
2022/01/03 03:46:23;;;;;;;21.75;14.75;;;;;;;5.48;80.10;94574.77;794745;74;32911;-85
2022/01/03 04:01:14;;;;;;;22.90;15.08;;;;;;;5.42;80.08;94572.65;795719;73;30398;-86
2022/01/03 04:16:21;;;;;;;28.27;15.00;;;;;;;5.35;79.91;94566.10;802227;71;32935;-86
2022/01/03 04:31:10;;;;;;;23.18;15.90;;;;;;;5.43;80.12;94583.84;829998;71;29665;-84
2022/01/03 04:46:37;;;;;;;18.55;14.33;;;;;;;5.40;80.14;94570.05;830001;70;32821;-87
2022/01/03 05:01:25;;;;;;;18.23;13.40;;;;;;;5.28;79.85;94609.78;828914;71;32694;-88
2022/01/03 05:16:16;;;;;;;19.05;14.07;;;;;;;5.21;80.18;94605.58;830074;70;29719;-86
2022/01/03 05:32:02;;;;;;;19.17;15.10;;;;;;;5.11;80.78;94591.22;829226;71;32068;-88
2022/01/03 05:46:17;;;;;;;18.82;13.55;;;;;;;4.85;80.33;94540.09;829118;71;32524;-88
2022/01/03 06:01:23;;;;;;;21.65;14.58;;;;;;;5.11;80.67;94591.22;828620;71;32741;-87
2022/01/03 06:16:28;;;;;;;17.35;13.75;;;;;;;5.18;80.22;94602.17;828100;71;32697;-87
2022/01/03 06:31:30;;;;;;;22.27;14.85;;;;;;;5.41;79.78;94607.52;809885;73;32866;-85
2022/01/03 06:46:23;;;;;;;18.35;13.13;;;;;;;12.49;72.05;94590.20;827763;71;32728;-82
2022/01/03 07:01:22;;;;;;;22.55;14.35;;;;;;;8.97;68.27;94578.88;827271;71;33290;-82
2022/01/03 07:31:09;;;;;;;17.95;14.85;;;;;;;10.69;66.33;94569.58;833771;71;30194;-82
2022/01/03 07:46:09;;;;;;;20.27;16.80;;;;;;;11.70;62.47;94568.89;828052;71;29771;-83
2022/01/03 08:01:18;;;;;;;23.18;17.37;;;;;;;12.50;58.92;94573.86;827554;71;32746;-82
2022/01/03 08:16:10;;;;;;;22.32;16.35;;;;;;;12.71;58.03;94572.86;824941;71;30362;-82
2022/01/03 08:31:14;;;;;;;21.27;16.37;;;;;;;12.58;56.36;94571.84;828900;71;32727;-78
2022/01/03 08:46:09;;;;;;;18.80;15.32;;;;;;;13.58;56.00;94557.05;828702;71;29752;-80
2022/01/03 09:01:09;;;;;;;20.62;15.53;;;;;;;13.28;55.42;94516.95;834101;71;29856;-79
2022/01/03 09:16:09;;;;;;;20.68;15.85;;;;;;;13.86;54.46;94508.56;828992;71;29650;-78
2022/01/03 09:31:09;;;;;;;16.75;13.30;;;;;;;14.48;52.37;94496.97;825226;71;29455;-78
2022/01/03 09:46:10;;;;;;;18.70;14.73;;;;;;;14.34;52.09;94468.09;828377;71;29488;-79
2022/01/03 10:01:15;;;;;;;22.10;15.98;;;;;;;14.66;52.00;94442.28;827733;71;32701;-78
2022/01/03 10:16:15;;;;;;;20.90;16.12;;;;;;;14.70;51.77;94419.43;828568;71;31810;-79
2022/01/03 10:31:16;;;;;;;21.20;15.98;;;;;;;14.93;51.61;94402.83;828279;71;28439;-79
2022/01/03 10:46:23;;;;;;;24.77;17.30;;;;;;;14.34;51.70;94369.88;827526;71;31876;-80
2022/01/03 11:01:23;;;;;;;21.20;17.45;;;;;;;14.69;51.45;94339.98;827440;71;31753;-79
2022/01/03 11:16:10;;;;;;;20.90;15.38;;;;;;;14.57;51.40;94320.29;833903;71;29045;-78
2022/01/03 11:31:18;;;;;;;22.42;16.45;;;;;;;15.49;50.19;94291.09;834084;71;31746;-80
2022/01/03 11:46:13;;;;;;;21.75;17.95;;;;;;;16.07;48.65;94287.80;828493;71;29240;-78
2022/01/03 12:16:14;;;;;;;25.48;20.12;;;;;;;16.69;46.52;94244.95;839704;70;30980;-79
2022/01/03 12:31:11;;;;;;;25.12;20.80;;;;;;;16.38;47.10;94249.70;828495;71;30424;-76
2022/01/03 12:46:18;;;;;;;24.02;19.82;;;;;;;16.02;48.09;94229.24;830946;70;32025;-79
2022/01/03 13:01:17;;;;;;;29.55;22.15;;;;;;;15.54;49.03;94208.91;828074;71;28685;-76
2022/01/03 13:16:28;;;;;;;30.30;21.62;;;;;;;15.52;49.37;94207.69;838236;70;31453;-77
2022/01/03 13:31:09;;;;;;;28.60;21.37;;;;;;;15.00;50.57;94202.27;817330;70;28445;-80
2022/01/03 14:01:09;;;;;;;31.23;22.17;;;;;;;13.93;53.72;94214.23;836449;70;28514;-78
2022/01/03 14:16:14;;;;;;;30.15;22.13;;;;;;;13.48;55.40;94211.98;823901;71;29707;-81
2022/01/03 14:31:11;;;;;;;35.90;24.30;;;;;;;13.19;56.96;94234.45;817622;70;29672;-81
2022/01/03 14:46:30;;;;;;;33.18;26.40;;;;;;;12.88;58.91;94225.94;836318;70;33081;-83
2022/01/03 15:01:10;;;;;;;42.10;28.67;;;;;;;12.60;60.12;94204.59;834609;70;30372;-81
2022/01/03 15:16:19;;;;;;;37.05;26.52;;;;;;;12.35;61.04;94221.10;819635;71;32795;-82
2022/01/03 15:31:12;;;;;;;34.25;25.23;;;;;;;12.07;61.37;94234.45;820745;71;32392;-80
2022/01/03 15:46:08;;;;;;;40.15;26.20;;;;;;;11.81;61.48;94221.92;820341;71;29746;-81
2022/01/03 16:01:11;;;;;;;20.02;14.70;;;;;;;11.63;58.77;94217.10;835833;70;29937;-80
2022/01/03 16:16:22;;;;;;;30.17;22.35;;;;;;;11.35;59.42;94259.03;821684;69;32805;-86
2022/01/03 16:31:26;;;;;;;32.25;21.90;;;;;;;10.92;60.71;94300.14;822479;71;32824;-86
2022/01/03 17:01:45;;;;;;;;;;;;;;;;;;;;;
2022/01/03 17:16:26;;;;;;;24.75;17.27;;;;;;;10.46;59.45;94300.48;829710;71;32812;-84
2022/01/03 17:31:16;;;;;;;83.05;47.90;;;;;;;10.37;59.77;94325.85;822450;71;32899;-88
2022/01/03 17:46:18;;;;;;;35.75;24.35;;;;;;;10.10;60.42;94315.55;828248;71;33264;-86
2022/01/03 18:01:12;;;;;;;30.27;21.87;;;;;;;9.86;60.59;94314.37;829685;71;30555;-87
2022/01/03 18:16:18;;;;;;;27.40;19.80;;;;;;;9.72;60.67;94316.16;835165;71;32776;-87
2022/01/03 18:31:11;;;;;;;22.07;15.80;;;;;;;9.67;60.61;94321.47;835278;71;30422;-85
2022/01/03 18:46:41;;;;;;;23.83;16.35;;;;;;;9.61;60.67;94333.86;835637;71;32959;-87
2022/01/03 19:01:12;;;;;;;20.25;14.40;;;;;;;9.54;60.70;94353.10;829538;70;32002;-87
2022/01/03 19:16:09;;;;;;;18.42;13.62;;;;;;;9.52;60.28;94411.53;800912;74;30379;-86
